Aérodrome :
LOGIN :

S'inscrire | Disclaimer

   EN    FR    IT 

 










Légende :    VFR   VFR Marginal   IFR   IFR Intensif   IFR Très Intensif
Visi : 
Plafond : 
>= 8 km
>= 3000ft
5 à 8 km
1000 à 3000 ft
1500m à 5 km
500 à 1000 ft
800 à 1500m
200 à 500 ft
< 800m
< 200 ft
Symboles :   Orages  Brouillard  Fortes neiges  Fortes précipitations  Vent > 20 kt
SIGMETs :   Divers  Orages  Givrage  Turbulence  Onde Orograph.  Cendres Volcan.







- Altitude de l'aérodrome : 1090 ft
- Code IATA : CFE
- Voir les cartes d'approche


LFLC - Clermont-Ferrand Auvergne

DERNIER METAR :
  • 251130Z AUTO 01010KT 320V070 CAVOK 23/10 Q1021 NOSIG

METARs EXPIRÉS :
  • 251100Z AUTO 03009KT 350V060 CAVOK 22/11 Q1021 NOSIG
  • 251030Z AUTO 01010KT 310V050 CAVOK 22/10 Q1021 NOSIG
  • 251000Z AUTO 01008KT 310V060 CAVOK 21/10 Q1021 NOSIG
  • 250930Z AUTO 36008KT 320V050 CAVOK 21/11 Q1021 NOSIG
  • 250900Z AUTO 36006KT 320V040 CAVOK 20/09 Q1021 NOSIG

TAF TAF LFLC
Valide du 25 à 09h jusqu'au 26 à 09h UTC


250800Z 2509/2609 36010KT CAVOK
ATIS : +33 4 73 62 74 38
Pas de NOTAMs connus pour ce terrain.
1 SIGMET publié pour la FIR Marseille (LFMM) :
 
Orages noyés dans la masse
LFMM SIGMET 1 VALID 251200/251300 LFPW
LFMM MARSEILLE FIR/UIR EMBD TS OBS AT 1200Z S OF N4230 AND E OF E00830 TOP FL240 STNR NC=



MET'MAP, la Météo Aéronautique d'un coup d'oeil ! - Copyright ORBIFLY Décembre 2007 - Disclaimer

ORBIFLY MET'MAP TEAM :

Programmation & Développement : Alexandra Zaïnal
Conception & Développement : Baudouin d'Aumeries
Co-Programmation & Développement : Marc-Olivier Méhu
Soutien technique & logistique : Manuel Goepfert

Contact : metmap@orbifly.com




SOURCES & CREDITS :

   NOAA